sensor_id;sensor_type;location;lat;lon;timestamp;temperature;humidity
13186;DHT22;6658;53.080;7.428;2022-12-05T00:02:21;5.30;99.90
13186;DHT22;6658;53.080;7.428;2022-12-05T00:04:47;5.30;99.90
13186;DHT22;6658;53.080;7.428;2022-12-05T00:07:12;5.30;99.90
13186;DHT22;6658;53.080;7.428;2022-12-05T00:09:38;5.30;99.90
13186;DHT22;6658;53.080;7.428;2022-12-05T00:12:04;5.30;99.90
13186;DHT22;6658;53.080;7.428;2022-12-05T00:14:30;5.30;99.90
13186;DHT22;6658;53.080;7.428;2022-12-05T00:16:55;5.40;99.90
13186;DHT22;6658;53.080;7.428;2022-12-05T00:19:21;5.40;99.90
13186;DHT22;6658;53.080;7.428;2022-12-05T00:21:47;5.40;99.90
13186;DHT22;6658;53.080;7.428;2022-12-05T00:24:14;5.40;99.90
13186;DHT22;6658;53.080;7.428;2022-12-05T00:26:41;5.50;99.90
13186;DHT22;6658;53.080;7.428;2022-12-05T00:29:08;5.50;99.90
13186;DHT22;6658;53.080;7.428;2022-12-05T00:31:34;5.60;99.90
13186;DHT22;6658;53.080;7.428;2022-12-05T00:34:01;5.60;99.90
13186;DHT22;6658;53.080;7.428;2022-12-05T00:36:29;5.60;99.90
13186;DHT22;6658;53.080;7.428;2022-12-05T00:38:57;5.60;99.90
13186;DHT22;6658;53.080;7.428;2022-12-05T00:41:25;5.60;99.90
13186;DHT22;6658;53.080;7.428;2022-12-05T00:43:52;5.70;99.90
13186;DHT22;6658;53.080;7.428;2022-12-05T00:46:23;5.70;99.90
13186;DHT22;6658;53.080;7.428;2022-12-05T00:48:51;5.70;99.90
13186;DHT22;6658;53.080;7.428;2022-12-05T00:51:26;5.70;99.90
13186;DHT22;6658;53.080;7.428;2022-12-05T00:53:52;5.70;99.90
13186;DHT22;6658;53.080;7.428;2022-12-05T00:56:21;5.70;99.90
13186;DHT22;6658;53.080;7.428;2022-12-05T00:58:48;5.70;99.90
13186;DHT22;6658;53.080;7.428;2022-12-05T01:01:20;5.70;99.90
13186;DHT22;6658;53.080;7.428;2022-12-05T01:03:47;5.70;99.90
13186;DHT22;6658;53.080;7.428;2022-12-05T01:06:15;5.70;99.90
13186;DHT22;6658;53.080;7.428;2022-12-05T01:08:41;5.80;99.90
13186;DHT22;6658;53.080;7.428;2022-12-05T01:11:08;5.80;99.90
13186;DHT22;6658;53.080;7.428;2022-12-05T01:13:35;5.70;99.90
13186;DHT22;6658;53.080;7.428;2022-12-05T01:16:01;5.70;99.90
13186;DHT22;6658;53.080;7.428;2022-12-05T01:18:28;5.80;99.90
13186;DHT22;6658;53.080;7.428;2022-12-05T01:20:54;5.70;99.90
13186;DHT22;6658;53.080;7.428;2022-12-05T01:23:20;5.70;99.90
13186;DHT22;6658;53.080;7.428;2022-12-05T01:25:48;5.80;99.90
13186;DHT22;6658;53.080;7.428;2022-12-05T01:28:15;5.80;99.90
13186;DHT22;6658;53.080;7.428;2022-12-05T01:30:45;5.80;99.90
13186;DHT22;6658;53.080;7.428;2022-12-05T01:33:11;5.80;99.90
13186;DHT22;6658;53.080;7.428;2022-12-05T01:35:39;5.80;99.90
13186;DHT22;6658;53.080;7.428;2022-12-05T01:38:05;5.80;99.90
13186;DHT22;6658;53.080;7.428;2022-12-05T01:40:32;5.80;99.90
13186;DHT22;6658;53.080;7.428;2022-12-05T01:42:58;5.80;99.90
13186;DHT22;6658;53.080;7.428;2022-12-05T01:45:39;5.80;99.90
13186;DHT22;6658;53.080;7.428;2022-12-05T01:48:22;5.80;99.90
13186;DHT22;6658;53.080;7.428;2022-12-05T01:50:50;5.90;99.90
13186;DHT22;6658;53.080;7.428;2022-12-05T01:53:16;5.90;99.90
13186;DHT22;6658;53.080;7.428;2022-12-05T01:55:44;5.90;99.90
13186;DHT22;6658;53.080;7.428;2022-12-05T01:58:10;5.90;99.90
13186;DHT22;6658;53.080;7.428;2022-12-05T02:00:38;5.90;99.90
13186;DHT22;6658;53.080;7.428;2022-12-05T02:03:07;5.90;99.90
13186;DHT22;6658;53.080;7.428;2022-12-05T02:05:35;5.90;99.90
13186;DHT22;6658;53.080;7.428;2022-12-05T02:08:07;6.00;99.90
13186;DHT22;6658;53.080;7.428;2022-12-05T02:10:37;6.00;99.90
13186;DHT22;6658;53.080;7.428;2022-12-05T02:15:51;5.90;99.90
13186;DHT22;6658;53.080;7.428;2022-12-05T02:41:05;5.90;99.90
13186;DHT22;6658;53.080;7.428;2022-12-05T02:46:05;5.80;99.90
13186;DHT22;6658;53.080;7.428;2022-12-05T02:48:33;5.80;99.90
13186;DHT22;6658;53.080;7.428;2022-12-05T02:51:01;5.80;99.90
13186;DHT22;6658;53.080;7.428;2022-12-05T02:53:28;5.80;99.90
13186;DHT22;6658;53.080;7.428;2022-12-05T02:55:55;5.80;99.90
13186;DHT22;6658;53.080;7.428;2022-12-05T02:58:26;5.80;99.90
13186;DHT22;6658;53.080;7.428;2022-12-05T03:00:56;5.80;99.90
13186;DHT22;6658;53.080;7.428;2022-12-05T03:03:23;5.70;99.90
13186;DHT22;6658;53.080;7.428;2022-12-05T03:08:40;5.70;99.90
13186;DHT22;6658;53.080;7.428;2022-12-05T03:11:07;5.70;99.90
13186;DHT22;6658;53.080;7.428;2022-12-05T03:13:54;5.70;99.90
13186;DHT22;6658;53.080;7.428;2022-12-05T03:16:38;5.70;99.90
13186;DHT22;6658;53.080;7.428;2022-12-05T03:19:11;5.70;99.90
13186;DHT22;6658;53.080;7.428;2022-12-05T03:21:51;5.70;99.90
13186;DHT22;6658;53.080;7.428;2022-12-05T03:24:19;5.70;99.90
13186;DHT22;6658;53.080;7.428;2022-12-05T03:29:41;5.70;99.90
13186;DHT22;6658;53.080;7.428;2022-12-05T03:32:35;5.70;99.90
13186;DHT22;6658;53.080;7.428;2022-12-05T03:44:04;5.70;99.90
13186;DHT22;6658;53.080;7.428;2022-12-05T03:47:19;5.70;99.90
13186;DHT22;6658;53.080;7.428;2022-12-05T03:49:50;5.70;99.90
13186;DHT22;6658;53.080;7.428;2022-12-05T03:52:28;5.70;99.90
13186;DHT22;6658;53.080;7.428;2022-12-05T03:54:59;5.70;99.90
13186;DHT22;6658;53.080;7.428;2022-12-05T03:57:51;5.70;99.90
13186;DHT22;6658;53.080;7.428;2022-12-05T04:00:21;5.70;99.90
13186;DHT22;6658;53.080;7.428;2022-12-05T04:03:09;5.70;99.90
13186;DHT22;6658;53.080;7.428;2022-12-05T04:05:43;5.70;99.90
13186;DHT22;6658;53.080;7.428;2022-12-05T04:08:25;5.70;99.90
13186;DHT22;6658;53.080;7.428;2022-12-05T04:10:55;5.70;99.90
13186;DHT22;6658;53.080;7.428;2022-12-05T04:15:58;5.70;99.90
13186;DHT22;6658;53.080;7.428;2022-12-05T04:18:55;5.60;99.90
13186;DHT22;6658;53.080;7.428;2022-12-05T04:21:27;5.70;99.90
13186;DHT22;6658;53.080;7.428;2022-12-05T04:24:07;5.70;99.90
13186;DHT22;6658;53.080;7.428;2022-12-05T04:27:21;5.70;99.90
13186;DHT22;6658;53.080;7.428;2022-12-05T04:30:07;5.70;99.90
13186;DHT22;6658;53.080;7.428;2022-12-05T04:32:47;5.70;99.90
13186;DHT22;6658;53.080;7.428;2022-12-05T04:35:21;5.70;99.90
13186;DHT22;6658;53.080;7.428;2022-12-05T04:37:51;5.70;99.90
13186;DHT22;6658;53.080;7.428;2022-12-05T04:40:22;5.70;99.90
13186;DHT22;6658;53.080;7.428;2022-12-05T04:42:52;5.70;99.90
13186;DHT22;6658;53.080;7.428;2022-12-05T04:45:20;5.80;99.90
13186;DHT22;6658;53.080;7.428;2022-12-05T04:47:54;5.70;99.90
13186;DHT22;6658;53.080;7.428;2022-12-05T04:50:23;5.80;99.90
13186;DHT22;6658;53.080;7.428;2022-12-05T04:52:54;5.80;99.90
13186;DHT22;6658;53.080;7.428;2022-12-05T04:55:24;5.80;99.90
13186;DHT22;6658;53.080;7.428;2022-12-05T04:58:01;5.70;99.90
13186;DHT22;6658;53.080;7.428;2022-12-05T05:00:30;5.80;99.90
13186;DHT22;6658;53.080;7.428;2022-12-05T05:03:12;5.80;99.90
13186;DHT22;6658;53.080;7.428;2022-12-05T05:05:39;5.80;99.90
13186;DHT22;6658;53.080;7.428;2022-12-05T05:08:16;5.70;99.90
13186;DHT22;6658;53.080;7.428;2022-12-05T05:10:53;5.80;99.90
13186;DHT22;6658;53.080;7.428;2022-12-05T05:13:21;5.80;99.90
13186;DHT22;6658;53.080;7.428;2022-12-05T05:15:47;5.80;99.90
13186;DHT22;6658;53.080;7.428;2022-12-05T05:18:13;5.70;99.90
13186;DHT22;6658;53.080;7.428;2022-12-05T05:20:38;5.80;99.90
13186;DHT22;6658;53.080;7.428;2022-12-05T05:23:04;5.80;99.90
13186;DHT22;6658;53.080;7.428;2022-12-05T05:25:30;5.80;99.90
13186;DHT22;6658;53.080;7.428;2022-12-05T05:27:55;5.80;99.90
13186;DHT22;6658;53.080;7.428;2022-12-05T05:30:23;5.80;99.90
13186;DHT22;6658;53.080;7.428;2022-12-05T05:32:49;5.80;99.90
13186;DHT22;6658;53.080;7.428;2022-12-05T05:35:15;5.80;99.90
13186;DHT22;6658;53.080;7.428;2022-12-05T05:37:41;5.80;99.90
13186;DHT22;6658;53.080;7.428;2022-12-05T05:40:09;5.80;99.90
13186;DHT22;6658;53.080;7.428;2022-12-05T05:42:35;5.80;99.90
13186;DHT22;6658;53.080;7.428;2022-12-05T05:45:02;5.80;99.90
13186;DHT22;6658;53.080;7.428;2022-12-05T05:47:28;5.80;99.90
13186;DHT22;6658;53.080;7.428;2022-12-05T05:49:53;5.80;99.90
13186;DHT22;6658;53.080;7.428;2022-12-05T05:52:19;5.80;99.90
13186;DHT22;6658;53.080;7.428;2022-12-05T05:54:45;5.80;99.90
13186;DHT22;6658;53.080;7.428;2022-12-05T05:57:10;5.80;99.90
13186;DHT22;6658;53.080;7.428;2022-12-05T05:59:36;5.80;99.90
13186;DHT22;6658;53.080;7.428;2022-12-05T06:02:02;5.80;99.90
13186;DHT22;6658;53.080;7.428;2022-12-05T06:04:27;5.90;99.90
13186;DHT22;6658;53.080;7.428;2022-12-05T06:06:53;5.90;99.90
13186;DHT22;6658;53.080;7.428;2022-12-05T06:09:19;5.90;99.90
13186;DHT22;6658;53.080;7.428;2022-12-05T06:11:44;5.90;99.90
13186;DHT22;6658;53.080;7.428;2022-12-05T06:14:10;5.90;99.90
13186;DHT22;6658;53.080;7.428;2022-12-05T06:16:36;5.90;99.90
13186;DHT22;6658;53.080;7.428;2022-12-05T06:19:01;5.90;99.90
13186;DHT22;6658;53.080;7.428;2022-12-05T06:21:27;5.90;99.90
13186;DHT22;6658;53.080;7.428;2022-12-05T06:23:53;5.90;99.90
13186;DHT22;6658;53.080;7.428;2022-12-05T06:26:20;5.90;99.90
13186;DHT22;6658;53.080;7.428;2022-12-05T06:28:46;5.90;99.90
13186;DHT22;6658;53.080;7.428;2022-12-05T06:31:18;5.90;99.90
13186;DHT22;6658;53.080;7.428;2022-12-05T06:33:44;6.00;99.90
13186;DHT22;6658;53.080;7.428;2022-12-05T06:36:19;5.90;99.90
13186;DHT22;6658;53.080;7.428;2022-12-05T06:38:44;6.00;99.90
13186;DHT22;6658;53.080;7.428;2022-12-05T06:41:15;5.90;99.90
13186;DHT22;6658;53.080;7.428;2022-12-05T06:43:41;5.90;99.90
13186;DHT22;6658;53.080;7.428;2022-12-05T06:46:10;6.00;99.90
13186;DHT22;6658;53.080;7.428;2022-12-05T06:48:36;6.00;99.90
13186;DHT22;6658;53.080;7.428;2022-12-05T06:51:02;6.00;99.90
13186;DHT22;6658;53.080;7.428;2022-12-05T06:53:28;6.00;99.90
13186;DHT22;6658;53.080;7.428;2022-12-05T06:55:59;5.90;99.90
13186;DHT22;6658;53.080;7.428;2022-12-05T06:58:25;6.00;99.90
13186;DHT22;6658;53.080;7.428;2022-12-05T07:00:51;6.00;99.90
13186;DHT22;6658;53.080;7.428;2022-12-05T07:03:35;5.90;99.90
13186;DHT22;6658;53.080;7.428;2022-12-05T07:06:04;5.90;99.90
13186;DHT22;6658;53.080;7.428;2022-12-05T07:08:31;5.90;99.90
13186;DHT22;6658;53.080;7.428;2022-12-05T07:10:57;5.90;99.90
13186;DHT22;6658;53.080;7.428;2022-12-05T07:13:23;5.90;99.90
13186;DHT22;6658;53.080;7.428;2022-12-05T07:15:49;5.90;99.90
13186;DHT22;6658;53.080;7.428;2022-12-05T07:18:16;5.90;99.90
13186;DHT22;6658;53.080;7.428;2022-12-05T07:20:42;5.90;99.90
13186;DHT22;6658;53.080;7.428;2022-12-05T07:23:08;5.80;99.90
13186;DHT22;6658;53.080;7.428;2022-12-05T07:25:38;5.80;99.90
13186;DHT22;6658;53.080;7.428;2022-12-05T07:28:05;5.80;99.90
13186;DHT22;6658;53.080;7.428;2022-12-05T07:30:30;5.80;99.90
13186;DHT22;6658;53.080;7.428;2022-12-05T07:32:56;5.80;99.90
13186;DHT22;6658;53.080;7.428;2022-12-05T07:35:22;5.80;99.90
13186;DHT22;6658;53.080;7.428;2022-12-05T07:37:47;5.80;99.90
13186;DHT22;6658;53.080;7.428;2022-12-05T07:40:13;5.80;99.90
13186;DHT22;6658;53.080;7.428;2022-12-05T07:42:39;5.80;99.90
13186;DHT22;6658;53.080;7.428;2022-12-05T07:45:05;5.80;99.90
13186;DHT22;6658;53.080;7.428;2022-12-05T07:47:31;5.80;99.90
13186;DHT22;6658;53.080;7.428;2022-12-05T07:49:57;5.80;99.90
13186;DHT22;6658;53.080;7.428;2022-12-05T07:52:23;5.80;99.90
13186;DHT22;6658;53.080;7.428;2022-12-05T07:54:48;5.80;99.90
13186;DHT22;6658;53.080;7.428;2022-12-05T07:57:14;5.70;99.90
13186;DHT22;6658;53.080;7.428;2022-12-05T07:59:40;5.70;99.90
13186;DHT22;6658;53.080;7.428;2022-12-05T08:02:05;5.80;99.90
13186;DHT22;6658;53.080;7.428;2022-12-05T08:04:31;5.70;99.90
13186;DHT22;6658;53.080;7.428;2022-12-05T08:06:57;5.70;99.90
13186;DHT22;6658;53.080;7.428;2022-12-05T08:09:22;5.80;99.90
13186;DHT22;6658;53.080;7.428;2022-12-05T08:11:48;5.70;99.90
13186;DHT22;6658;53.080;7.428;2022-12-05T08:14:14;5.80;99.90
13186;DHT22;6658;53.080;7.428;2022-12-05T08:16:39;5.80;99.90
13186;DHT22;6658;53.080;7.428;2022-12-05T08:19:07;5.80;99.90
13186;DHT22;6658;53.080;7.428;2022-12-05T08:21:33;5.80;99.90
13186;DHT22;6658;53.080;7.428;2022-12-05T08:24:01;5.80;99.90
13186;DHT22;6658;53.080;7.428;2022-12-05T08:26:30;5.80;99.90
13186;DHT22;6658;53.080;7.428;2022-12-05T08:28:58;5.70;99.90
13186;DHT22;6658;53.080;7.428;2022-12-05T08:31:25;5.80;99.90
13186;DHT22;6658;53.080;7.428;2022-12-05T08:33:51;5.80;99.90
13186;DHT22;6658;53.080;7.428;2022-12-05T08:36:18;5.80;99.90
13186;DHT22;6658;53.080;7.428;2022-12-05T08:38:45;5.80;99.90
13186;DHT22;6658;53.080;7.428;2022-12-05T08:41:13;5.80;99.90
13186;DHT22;6658;53.080;7.428;2022-12-05T08:43:39;5.80;99.90
13186;DHT22;6658;53.080;7.428;2022-12-05T08:46:05;5.80;99.90
13186;DHT22;6658;53.080;7.428;2022-12-05T08:48:32;5.70;99.90
13186;DHT22;6658;53.080;7.428;2022-12-05T08:50:59;5.80;99.90
13186;DHT22;6658;53.080;7.428;2022-12-05T08:53:28;5.80;99.90
13186;DHT22;6658;53.080;7.428;2022-12-05T08:55:54;5.80;99.90
13186;DHT22;6658;53.080;7.428;2022-12-05T08:58:19;5.80;99.90
13186;DHT22;6658;53.080;7.428;2022-12-05T09:00:45;5.80;99.90
13186;DHT22;6658;53.080;7.428;2022-12-05T09:03:11;5.70;99.90
13186;DHT22;6658;53.080;7.428;2022-12-05T09:05:37;5.70;99.90
13186;DHT22;6658;53.080;7.428;2022-12-05T09:08:03;5.70;99.90
13186;DHT22;6658;53.080;7.428;2022-12-05T09:10:29;5.70;99.90
13186;DHT22;6658;53.080;7.428;2022-12-05T09:12:55;5.70;99.90
13186;DHT22;6658;53.080;7.428;2022-12-05T09:15:20;5.70;99.90
13186;DHT22;6658;53.080;7.428;2022-12-05T09:17:46;5.70;99.90
13186;DHT22;6658;53.080;7.428;2022-12-05T09:20:12;5.70;99.90
13186;DHT22;6658;53.080;7.428;2022-12-05T09:22:41;5.70;99.90
13186;DHT22;6658;53.080;7.428;2022-12-05T09:25:08;5.70;99.90
13186;DHT22;6658;53.080;7.428;2022-12-05T09:27:34;5.70;99.90
13186;DHT22;6658;53.080;7.428;2022-12-05T09:29:59;5.70;99.90
13186;DHT22;6658;53.080;7.428;2022-12-05T09:32:26;5.70;99.90
13186;DHT22;6658;53.080;7.428;2022-12-05T09:34:51;5.70;99.90
13186;DHT22;6658;53.080;7.428;2022-12-05T09:37:17;5.70;99.90
13186;DHT22;6658;53.080;7.428;2022-12-05T09:39:44;5.70;99.90
13186;DHT22;6658;53.080;7.428;2022-12-05T09:55:22;5.70;99.90
13186;DHT22;6658;53.080;7.428;2022-12-05T09:57:56;5.70;99.90
13186;DHT22;6658;53.080;7.428;2022-12-05T10:00:22;5.70;99.90
13186;DHT22;6658;53.080;7.428;2022-12-05T10:03:01;5.70;99.90
13186;DHT22;6658;53.080;7.428;2022-12-05T10:11:40;5.60;99.90
13186;DHT22;6658;53.080;7.428;2022-12-05T10:16:57;5.70;99.90
13186;DHT22;6658;53.080;7.428;2022-12-05T10:19:37;5.60;99.90
13186;DHT22;6658;53.080;7.428;2022-12-05T10:22:12;5.70;99.90
13186;DHT22;6658;53.080;7.428;2022-12-05T10:24:49;5.70;99.90
13186;DHT22;6658;53.080;7.428;2022-12-05T10:27:29;5.70;99.90
13186;DHT22;6658;53.080;7.428;2022-12-05T10:32:57;5.70;99.90
13186;DHT22;6658;53.080;7.428;2022-12-05T10:35:26;5.70;99.90
13186;DHT22;6658;53.080;7.428;2022-12-05T10:37:57;5.70;99.90
13186;DHT22;6658;53.080;7.428;2022-12-05T10:40:26;5.70;99.90
13186;DHT22;6658;53.080;7.428;2022-12-05T10:42:57;5.70;99.90
13186;DHT22;6658;53.080;7.428;2022-12-05T10:45:23;5.70;99.90
13186;DHT22;6658;53.080;7.428;2022-12-05T10:47:53;5.70;99.90
13186;DHT22;6658;53.080;7.428;2022-12-05T10:50:35;5.70;99.90
13186;DHT22;6658;53.080;7.428;2022-12-05T10:53:04;5.70;99.90
13186;DHT22;6658;53.080;7.428;2022-12-05T10:55:36;5.70;99.90
13186;DHT22;6658;53.080;7.428;2022-12-05T11:00:42;5.70;99.90
13186;DHT22;6658;53.080;7.428;2022-12-05T11:03:31;5.70;99.90
13186;DHT22;6658;53.080;7.428;2022-12-05T11:06:17;5.70;99.90
13186;DHT22;6658;53.080;7.428;2022-12-05T11:08:51;5.70;99.90
13186;DHT22;6658;53.080;7.428;2022-12-05T11:11:25;5.70;99.90
13186;DHT22;6658;53.080;7.428;2022-12-05T11:14:23;5.70;99.90
13186;DHT22;6658;53.080;7.428;2022-12-05T11:16:58;5.70;99.90
13186;DHT22;6658;53.080;7.428;2022-12-05T11:19:35;5.70;99.90
13186;DHT22;6658;53.080;7.428;2022-12-05T11:22:02;5.70;99.90
13186;DHT22;6658;53.080;7.428;2022-12-05T11:24:36;5.70;99.90
13186;DHT22;6658;53.080;7.428;2022-12-05T11:29:40;5.80;99.90
13186;DHT22;6658;53.080;7.428;2022-12-05T11:32:18;5.80;99.90
13186;DHT22;6658;53.080;7.428;2022-12-05T11:35:07;5.80;99.90
13186;DHT22;6658;53.080;7.428;2022-12-05T11:40:17;5.80;99.90
13186;DHT22;6658;53.080;7.428;2022-12-05T11:53:57;5.80;99.90
13186;DHT22;6658;53.080;7.428;2022-12-05T11:56:37;5.80;99.90
13186;DHT22;6658;53.080;7.428;2022-12-05T12:05:24;5.80;99.90
13186;DHT22;6658;53.080;7.428;2022-12-05T12:10:48;5.80;99.90
13186;DHT22;6658;53.080;7.428;2022-12-05T12:13:26;5.80;99.90
13186;DHT22;6658;53.080;7.428;2022-12-05T12:30:23;5.90;99.90
13186;DHT22;6658;53.080;7.428;2022-12-05T12:32:58;5.90;99.90
13186;DHT22;6658;53.080;7.428;2022-12-05T12:35:37;5.90;99.90
13186;DHT22;6658;53.080;7.428;2022-12-05T12:41:00;5.90;99.90
13186;DHT22;6658;53.080;7.428;2022-12-05T12:46:34;5.90;99.90
13186;DHT22;6658;53.080;7.428;2022-12-05T12:52:00;5.90;99.90
13186;DHT22;6658;53.080;7.428;2022-12-05T12:57:21;5.80;99.90
13186;DHT22;6658;53.080;7.428;2022-12-05T13:02:40;5.90;99.90
13186;DHT22;6658;53.080;7.428;2022-12-05T13:05:29;5.90;99.90
13186;DHT22;6658;53.080;7.428;2022-12-05T13:08:04;5.90;99.90
13186;DHT22;6658;53.080;7.428;2022-12-05T13:10:50;5.90;99.90
13186;DHT22;6658;53.080;7.428;2022-12-05T13:13:25;5.90;99.90
13186;DHT22;6658;53.080;7.428;2022-12-05T13:15:57;5.90;99.90
13186;DHT22;6658;53.080;7.428;2022-12-05T13:18:24;5.90;99.90
13186;DHT22;6658;53.080;7.428;2022-12-05T13:20:54;5.90;99.90
13186;DHT22;6658;53.080;7.428;2022-12-05T13:23:23;5.90;99.90
13186;DHT22;6658;53.080;7.428;2022-12-05T13:25:52;5.90;99.90
13186;DHT22;6658;53.080;7.428;2022-12-05T13:28:39;5.90;99.90
13186;DHT22;6658;53.080;7.428;2022-12-05T13:31:11;5.90;99.90
13186;DHT22;6658;53.080;7.428;2022-12-05T13:33:46;5.90;99.90
13186;DHT22;6658;53.080;7.428;2022-12-05T13:36:17;5.90;99.90
13186;DHT22;6658;53.080;7.428;2022-12-05T13:39:05;5.90;99.90
13186;DHT22;6658;53.080;7.428;2022-12-05T13:41:55;5.90;99.90
13186;DHT22;6658;53.080;7.428;2022-12-05T13:44:49;5.90;99.90
13186;DHT22;6658;53.080;7.428;2022-12-05T13:50:18;5.90;99.90
13186;DHT22;6658;53.080;7.428;2022-12-05T13:52:50;5.90;99.90
13186;DHT22;6658;53.080;7.428;2022-12-05T13:55:28;5.90;99.90
13186;DHT22;6658;53.080;7.428;2022-12-05T14:00:43;5.90;99.90
13186;DHT22;6658;53.080;7.428;2022-12-05T14:05:59;5.90;99.90
13186;DHT22;6658;53.080;7.428;2022-12-05T14:15:55;5.80;99.90
13186;DHT22;6658;53.080;7.428;2022-12-05T14:22:17;5.90;99.90
13186;DHT22;6658;53.080;7.428;2022-12-05T14:25:25;5.90;99.90
13186;DHT22;6658;53.080;7.428;2022-12-05T14:27:48;5.90;99.90
13186;DHT22;6658;53.080;7.428;2022-12-05T14:32:48;5.80;99.90
13186;DHT22;6658;53.080;7.428;2022-12-05T14:46:06;5.80;99.90
13186;DHT22;6658;53.080;7.428;2022-12-05T14:48:38;5.70;99.90
13186;DHT22;6658;53.080;7.428;2022-12-05T14:54:05;5.70;99.90
13186;DHT22;6658;53.080;7.428;2022-12-05T14:56:38;5.70;99.90
13186;DHT22;6658;53.080;7.428;2022-12-05T14:59:21;5.70;99.90
13186;DHT22;6658;53.080;7.428;2022-12-05T15:02:01;5.70;99.90
13186;DHT22;6658;53.080;7.428;2022-12-05T15:04:40;5.70;99.90
13186;DHT22;6658;53.080;7.428;2022-12-05T15:07:11;5.70;99.90
13186;DHT22;6658;53.080;7.428;2022-12-05T15:12:27;5.60;99.90
13186;DHT22;6658;53.080;7.428;2022-12-05T15:15:18;5.70;99.90
13186;DHT22;6658;53.080;7.428;2022-12-05T15:17:53;5.70;99.90
13186;DHT22;6658;53.080;7.428;2022-12-05T15:20:45;5.60;99.90
13186;DHT22;6658;53.080;7.428;2022-12-05T15:26:10;5.60;99.90
13186;DHT22;6658;53.080;7.428;2022-12-05T15:28:40;5.60;99.90
13186;DHT22;6658;53.080;7.428;2022-12-05T15:31:13;5.70;99.90
13186;DHT22;6658;53.080;7.428;2022-12-05T15:33:49;5.60;99.90
13186;DHT22;6658;53.080;7.428;2022-12-05T15:36:31;5.60;99.90
13186;DHT22;6658;53.080;7.428;2022-12-05T15:39:13;5.60;99.90
13186;DHT22;6658;53.080;7.428;2022-12-05T15:41:41;5.60;99.90
13186;DHT22;6658;53.080;7.428;2022-12-05T15:44:08;5.60;99.90
13186;DHT22;6658;53.080;7.428;2022-12-05T15:46:35;5.60;99.90
13186;DHT22;6658;53.080;7.428;2022-12-05T15:49:16;5.60;99.90
13186;DHT22;6658;53.080;7.428;2022-12-05T15:51:43;5.60;99.90
13186;DHT22;6658;53.080;7.428;2022-12-05T15:54:18;5.70;99.90
13186;DHT22;6658;53.080;7.428;2022-12-05T15:59:28;5.60;99.90
13186;DHT22;6658;53.080;7.428;2022-12-05T16:02:04;5.60;99.90
13186;DHT22;6658;53.080;7.428;2022-12-05T16:04:55;5.60;99.90
13186;DHT22;6658;53.080;7.428;2022-12-05T16:07:24;5.60;99.90
13186;DHT22;6658;53.080;7.428;2022-12-05T16:09:55;5.60;99.90
13186;DHT22;6658;53.080;7.428;2022-12-05T16:14:53;5.60;99.90
13186;DHT22;6658;53.080;7.428;2022-12-05T16:17:20;5.60;99.90
13186;DHT22;6658;53.080;7.428;2022-12-05T16:19:46;5.60;99.90
13186;DHT22;6658;53.080;7.428;2022-12-05T16:27:12;5.60;99.90
13186;DHT22;6658;53.080;7.428;2022-12-05T16:29:38;5.60;99.90
13186;DHT22;6658;53.080;7.428;2022-12-05T16:32:20;5.60;99.90
13186;DHT22;6658;53.080;7.428;2022-12-05T16:34:47;5.60;99.90
13186;DHT22;6658;53.080;7.428;2022-12-05T16:37:26;5.60;99.90
13186;DHT22;6658;53.080;7.428;2022-12-05T16:39:52;5.60;99.90
13186;DHT22;6658;53.080;7.428;2022-12-05T16:42:24;5.60;99.90
13186;DHT22;6658;53.080;7.428;2022-12-05T16:44:56;5.60;99.90
13186;DHT22;6658;53.080;7.428;2022-12-05T16:47:53;5.60;99.90
13186;DHT22;6658;53.080;7.428;2022-12-05T16:50:28;5.50;99.90
13186;DHT22;6658;53.080;7.428;2022-12-05T16:55:32;5.50;99.90
13186;DHT22;6658;53.080;7.428;2022-12-05T16:58:02;5.50;99.90
13186;DHT22;6658;53.080;7.428;2022-12-05T17:00:28;5.60;99.90
13186;DHT22;6658;53.080;7.428;2022-12-05T17:02:56;5.60;99.90
13186;DHT22;6658;53.080;7.428;2022-12-05T17:05:22;5.50;99.90
13186;DHT22;6658;53.080;7.428;2022-12-05T17:07:49;5.50;99.90
13186;DHT22;6658;53.080;7.428;2022-12-05T17:10:16;5.50;99.90
13186;DHT22;6658;53.080;7.428;2022-12-05T17:12:43;5.50;99.90
13186;DHT22;6658;53.080;7.428;2022-12-05T17:15:19;5.50;99.90
13186;DHT22;6658;53.080;7.428;2022-12-05T17:17:45;5.50;99.90
13186;DHT22;6658;53.080;7.428;2022-12-05T17:20:11;5.50;99.90
13186;DHT22;6658;53.080;7.428;2022-12-05T17:22:38;5.50;99.90
13186;DHT22;6658;53.080;7.428;2022-12-05T17:27:47;5.50;99.90
13186;DHT22;6658;53.080;7.428;2022-12-05T17:30:13;5.50;99.90
13186;DHT22;6658;53.080;7.428;2022-12-05T17:32:39;5.50;99.90
13186;DHT22;6658;53.080;7.428;2022-12-05T17:35:26;5.50;99.90
13186;DHT22;6658;53.080;7.428;2022-12-05T17:37:52;5.50;99.90
13186;DHT22;6658;53.080;7.428;2022-12-05T17:40:18;5.50;99.90
13186;DHT22;6658;53.080;7.428;2022-12-05T17:42:43;5.50;99.90
13186;DHT22;6658;53.080;7.428;2022-12-05T17:45:14;5.50;99.90
13186;DHT22;6658;53.080;7.428;2022-12-05T17:47:41;5.50;99.90
13186;DHT22;6658;53.080;7.428;2022-12-05T17:50:12;5.50;99.90
13186;DHT22;6658;53.080;7.428;2022-12-05T17:52:38;5.50;99.90
13186;DHT22;6658;53.080;7.428;2022-12-05T17:55:04;5.50;99.90
13186;DHT22;6658;53.080;7.428;2022-12-05T17:57:29;5.50;99.90
13186;DHT22;6658;53.080;7.428;2022-12-05T17:59:55;5.50;99.90
13186;DHT22;6658;53.080;7.428;2022-12-05T18:02:21;5.50;99.90
13186;DHT22;6658;53.080;7.428;2022-12-05T18:04:46;5.50;99.90
13186;DHT22;6658;53.080;7.428;2022-12-05T18:07:12;5.50;99.90
13186;DHT22;6658;53.080;7.428;2022-12-05T18:09:38;5.50;99.90
13186;DHT22;6658;53.080;7.428;2022-12-05T18:12:04;5.50;99.90
13186;DHT22;6658;53.080;7.428;2022-12-05T18:14:29;5.50;99.90
13186;DHT22;6658;53.080;7.428;2022-12-05T18:17:00;5.50;99.90
13186;DHT22;6658;53.080;7.428;2022-12-05T18:19:26;5.50;99.90
13186;DHT22;6658;53.080;7.428;2022-12-05T18:21:52;5.50;99.90
13186;DHT22;6658;53.080;7.428;2022-12-05T18:24:17;5.50;99.90
13186;DHT22;6658;53.080;7.428;2022-12-05T18:26:43;5.50;99.90
13186;DHT22;6658;53.080;7.428;2022-12-05T18:29:09;5.50;99.90
13186;DHT22;6658;53.080;7.428;2022-12-05T18:31:34;5.50;99.90
13186;DHT22;6658;53.080;7.428;2022-12-05T18:34:02;5.60;99.90
13186;DHT22;6658;53.080;7.428;2022-12-05T18:36:28;5.60;99.90
13186;DHT22;6658;53.080;7.428;2022-12-05T18:38:55;5.60;99.90
13186;DHT22;6658;53.080;7.428;2022-12-05T18:41:22;5.60;99.90
13186;DHT22;6658;53.080;7.428;2022-12-05T18:43:48;5.60;99.90
13186;DHT22;6658;53.080;7.428;2022-12-05T18:46:15;5.60;99.90
13186;DHT22;6658;53.080;7.428;2022-12-05T18:48:40;5.60;99.90
13186;DHT22;6658;53.080;7.428;2022-12-05T18:51:14;5.60;99.90
13186;DHT22;6658;53.080;7.428;2022-12-05T18:53:41;5.60;99.90
13186;DHT22;6658;53.080;7.428;2022-12-05T18:56:09;5.60;99.90
13186;DHT22;6658;53.080;7.428;2022-12-05T18:58:36;5.60;99.90
13186;DHT22;6658;53.080;7.428;2022-12-05T19:01:07;5.60;99.90
13186;DHT22;6658;53.080;7.428;2022-12-05T19:03:34;5.60;99.90
13186;DHT22;6658;53.080;7.428;2022-12-05T19:06:00;5.60;99.90
13186;DHT22;6658;53.080;7.428;2022-12-05T19:08:26;5.60;99.90
13186;DHT22;6658;53.080;7.428;2022-12-05T19:10:52;5.60;99.90
13186;DHT22;6658;53.080;7.428;2022-12-05T19:13:18;5.50;99.90
13186;DHT22;6658;53.080;7.428;2022-12-05T19:15:47;5.60;99.90
13186;DHT22;6658;53.080;7.428;2022-12-05T19:18:13;5.60;99.90
13186;DHT22;6658;53.080;7.428;2022-12-05T19:20:38;5.60;99.90
13186;DHT22;6658;53.080;7.428;2022-12-05T19:23:10;5.60;99.90
13186;DHT22;6658;53.080;7.428;2022-12-05T19:25:35;5.50;99.90
13186;DHT22;6658;53.080;7.428;2022-12-05T19:28:01;5.60;99.90